createdAt,value
2019-05-16T00:00:44.061Z,98538.78
2019-05-16T00:03:14.684Z,98544.80
2019-05-16T00:05:51.473Z,98555.00
2019-05-16T00:08:17.867Z,98559.48
2019-05-16T00:10:48.712Z,98551.38
2019-05-16T00:13:20.587Z,98548.58
2019-05-16T00:15:51.786Z,98548.53
2019-05-16T00:18:22.465Z,98554.84
2019-05-16T00:20:52.828Z,98562.33
2019-05-16T00:23:23.361Z,98562.44
2019-05-16T00:25:53.848Z,98568.83
2019-05-16T00:28:28.422Z,98572.39
2019-05-16T00:30:59.058Z,98567.27
2019-05-16T00:33:29.102Z,98562.64
2019-05-16T00:36:03.555Z,98559.63
2019-05-16T00:38:31.817Z,98556.61
2019-05-16T00:41:02.351Z,98552.09
2019-05-16T00:43:32.918Z,98568.47
2019-05-16T00:46:03.503Z,98562.75
2019-05-16T00:48:34.130Z,98561.23
2019-05-16T00:51:04.668Z,98562.19
2019-05-16T00:53:35.237Z,98558.30
2019-05-16T00:56:07.794Z,98565.43
2019-05-16T00:58:38.161Z,98564.02
2019-05-16T01:01:09.083Z,98570.05
2019-05-16T01:03:39.362Z,98565.43
2019-05-16T01:06:19.126Z,98568.40
2019-05-16T01:08:42.078Z,98566.14
2019-05-16T01:11:12.586Z,98560.56
2019-05-16T01:13:43.014Z,98553.27
2019-05-16T01:16:13.686Z,98542.20
2019-05-16T01:18:44.271Z,98540.73
2019-05-16T01:21:15.608Z,98546.09
2019-05-16T01:23:48.068Z,98552.62
2019-05-16T01:26:18.743Z,98559.11
2019-05-16T01:28:49.284Z,98568.03
2019-05-16T01:31:19.927Z,98564.36
2019-05-16T01:33:50.513Z,98553.21
2019-05-16T01:36:33.522Z,98544.91
2019-05-16T01:38:53.357Z,98552.97
2019-05-16T01:41:23.845Z,98550.37
2019-05-16T01:43:54.367Z,98555.79
2019-05-16T01:46:25.005Z,98559.86
2019-05-16T01:48:57.643Z,98554.64
2019-05-16T01:51:28.807Z,98552.05
2019-05-16T01:54:00.177Z,98557.95
2019-05-16T01:56:30.507Z,98554.65
2019-05-16T01:59:01.173Z,98555.23
2019-05-16T02:01:32.172Z,98551.62
2019-05-16T02:04:02.902Z,98548.41
2019-05-16T02:06:33.361Z,98552.87
2019-05-16T02:09:05.191Z,98547.94
2019-05-16T02:11:35.370Z,98554.35
2019-05-16T02:14:06.912Z,98553.79
2019-05-16T02:16:38.423Z,98555.94
2019-05-16T02:19:08.888Z,98545.46
2019-05-16T02:21:40.231Z,98546.45
2019-05-16T02:24:10.936Z,98548.81
2019-05-16T02:26:41.291Z,98544.57
2019-05-16T02:29:13.686Z,98544.08
2019-05-16T02:31:43.945Z,98544.92
2019-05-16T02:34:14.184Z,98547.28
2019-05-16T02:36:44.604Z,98537.81
2019-05-16T02:39:15.267Z,98530.44
2019-05-16T02:41:46.725Z,98522.34
2019-05-16T02:44:24.079Z,98516.92
2019-05-16T02:46:50.937Z,98524.51
2019-05-16T02:49:21.742Z,98540.30
2019-05-16T02:51:52.212Z,98539.11
2019-05-16T02:54:22.501Z,98539.00
2019-05-16T02:56:52.887Z,98540.53
2019-05-16T02:59:23.547Z,98542.66
2019-05-16T03:01:54.080Z,98541.86
2019-05-16T03:04:24.617Z,98545.64
2019-05-16T03:06:55.044Z,98537.87
2019-05-16T03:09:25.560Z,98540.42
2019-05-16T03:11:57.174Z,98543.38
2019-05-16T03:14:27.688Z,98548.14
2019-05-16T03:17:00.877Z,98556.06
2019-05-16T03:19:31.107Z,98563.50
2019-05-16T03:22:01.900Z,98567.70
2019-05-16T03:24:32.323Z,98566.74
2019-05-16T03:27:03.739Z,98559.39
2019-05-16T03:29:34.321Z,98568.69
2019-05-16T03:32:04.923Z,98581.70
2019-05-16T03:34:35.577Z,98591.80
2019-05-16T03:37:06.246Z,98595.47
2019-05-16T03:39:36.618Z,98587.14
2019-05-16T03:42:07.272Z,98585.61
2019-05-16T03:44:40.891Z,98581.88
2019-05-16T03:47:11.188Z,98580.94
2019-05-16T03:49:42.362Z,98569.75
2019-05-16T03:52:14.190Z,98565.63
2019-05-16T03:54:44.723Z,98566.44
2019-05-16T03:57:15.388Z,98572.14
2019-05-16T03:59:45.915Z,98571.64
2019-05-16T04:02:16.305Z,98579.62
2019-05-16T04:04:46.823Z,98579.95
2019-05-16T04:07:17.154Z,98585.33
2019-05-16T04:09:50.642Z,98595.69
2019-05-16T04:12:21.433Z,98609.61
2019-05-16T04:14:52.187Z,98608.25
2019-05-16T04:17:23.669Z,98607.86
2019-05-16T04:19:53.898Z,98608.77
2019-05-16T04:22:24.434Z,98609.01
2019-05-16T04:24:54.957Z,98612.67
2019-05-16T04:27:25.385Z,98616.16
2019-05-16T04:29:55.844Z,98611.30
2019-05-16T04:32:26.025Z,98604.92
2019-05-16T04:34:56.454Z,98613.73
2019-05-16T04:37:27.079Z,98614.24
2019-05-16T04:39:57.251Z,98610.30
2019-05-16T04:42:30.770Z,98605.91
2019-05-16T04:45:01.215Z,98606.94
2019-05-16T04:47:33.773Z,98606.16
2019-05-16T04:50:06.282Z,98610.48
2019-05-16T04:52:36.818Z,98610.86
2019-05-16T04:55:07.545Z,98613.93
2019-05-16T04:57:41.779Z,98603.48
2019-05-16T05:00:11.242Z,98610.51
2019-05-16T05:02:42.258Z,98611.66
2019-05-16T05:05:13.085Z,98607.22
2019-05-16T05:07:43.463Z,98606.06
2019-05-16T05:10:14.001Z,98605.24
2019-05-16T05:12:46.378Z,98607.97
2019-05-16T05:15:21.235Z,98599.43
2019-05-16T05:17:55.350Z,98590.75
2019-05-16T05:20:25.471Z,98599.42
2019-05-16T05:22:57.812Z,98608.06
2019-05-16T05:25:30.881Z,98613.88
2019-05-16T05:28:02.340Z,98617.45
2019-05-16T05:30:33.670Z,98622.59
2019-05-16T05:33:04.317Z,98619.19
2019-05-16T05:35:35.005Z,98623.58
2019-05-16T05:38:07.571Z,98626.61
2019-05-16T05:40:40.254Z,98631.26
2019-05-16T05:43:10.561Z,98625.84
2019-05-16T05:45:42.343Z,98630.18
2019-05-16T05:48:12.558Z,98622.88
2019-05-16T05:50:45.538Z,98616.00
2019-05-16T05:53:16.031Z,98622.03
2019-05-16T05:55:46.655Z,98623.00
2019-05-16T05:58:17.329Z,98633.53
2019-05-16T06:00:51.579Z,98644.80
2019-05-16T06:03:22.213Z,98647.46
2019-05-16T06:05:52.166Z,98647.64
2019-05-16T06:08:22.610Z,98652.05
2019-05-16T06:10:53.207Z,98661.53
2019-05-16T06:13:23.729Z,98660.66
2019-05-16T06:15:54.276Z,98665.58
2019-05-16T06:18:24.918Z,98666.59
2019-05-16T06:20:55.511Z,98666.61
2019-05-16T06:23:25.895Z,98670.48
2019-05-16T06:25:56.446Z,98670.89
2019-05-16T06:28:27.220Z,98671.50
2019-05-16T06:30:57.895Z,98664.97
2019-05-16T06:33:30.484Z,98671.87
2019-05-16T06:36:00.781Z,98672.08
2019-05-16T06:38:31.692Z,98671.66
2019-05-16T06:41:02.121Z,98672.75
2019-05-16T06:43:32.994Z,98674.22
2019-05-16T06:46:03.727Z,98673.61
2019-05-16T06:48:34.321Z,98668.51
2019-05-16T06:51:04.588Z,98668.51
2019-05-16T06:53:35.316Z,98657.61
2019-05-16T06:56:05.850Z,98653.39
2019-05-16T06:58:45.656Z,98656.45
2019-05-16T07:01:10.365Z,98654.80
2019-05-16T07:03:40.763Z,98659.72
2019-05-16T07:06:29.761Z,98659.81
2019-05-16T07:08:43.609Z,98663.45
2019-05-16T07:11:14.202Z,98654.02
2019-05-16T07:13:44.666Z,98650.09
2019-05-16T07:16:15.362Z,98642.94
2019-05-16T07:18:50.394Z,98643.59
2019-05-16T07:21:20.230Z,98648.06
2019-05-16T07:23:51.634Z,98652.20
2019-05-16T07:26:23.541Z,98652.03
2019-05-16T07:28:54.058Z,98652.13
2019-05-16T07:31:24.785Z,98654.53
2019-05-16T07:33:55.326Z,98655.38
2019-05-16T07:36:25.850Z,98648.45
2019-05-16T07:38:56.513Z,98656.09
2019-05-16T07:41:30.881Z,98652.91
2019-05-16T07:44:00.972Z,98645.36
2019-05-16T07:46:31.677Z,98648.19
2019-05-16T07:49:05.232Z,98646.69
2019-05-16T07:51:40.272Z,98653.48
2019-05-16T07:54:10.693Z,98651.30
2019-05-16T07:56:41.642Z,98642.52
2019-05-16T07:59:11.781Z,98647.34
2019-05-16T08:01:43.393Z,98652.27
2019-05-16T08:04:19.873Z,98650.22
2019-05-16T08:06:50.302Z,98651.84
2019-05-16T08:09:23.779Z,98646.20
2019-05-16T08:11:55.204Z,98643.35
2019-05-16T08:14:30.422Z,98639.02
2019-05-16T08:17:01.137Z,98640.67
2019-05-16T08:19:32.898Z,98633.69
2019-05-16T08:22:04.010Z,98643.19
2019-05-16T08:24:36.203Z,98635.29
2019-05-16T08:27:06.857Z,98640.52
2019-05-16T08:29:39.861Z,98639.61
2019-05-16T08:32:11.453Z,98641.34
2019-05-16T08:34:42.310Z,98643.09
2019-05-16T08:39:44.642Z,98640.62
2019-05-16T08:42:15.428Z,98643.08
2019-05-16T08:44:45.973Z,98642.61
2019-05-16T08:47:21.106Z,98640.67
2019-05-16T08:49:52.156Z,98635.66
2019-05-16T08:52:22.523Z,98637.89
2019-05-16T08:54:54.977Z,98645.98
2019-05-16T09:00:00.539Z,98636.37
2019-05-16T09:02:36.603Z,98633.17
2019-05-16T09:05:04.972Z,98637.12
2019-05-16T09:07:35.719Z,98641.07
2019-05-16T09:10:25.130Z,98642.34
2019-05-16T09:10:42.042Z,98641.53
2019-05-16T09:12:38.517Z,98645.70
2019-05-16T09:15:09.249Z,98644.70
2019-05-16T09:17:39.534Z,98644.27
2019-05-16T09:18:39.615Z,98650.22
2019-05-16T09:20:10.202Z,98643.69
2019-05-16T09:22:40.582Z,98635.47
2019-05-16T09:25:12.372Z,98638.20
2019-05-16T09:27:43.027Z,98631.65
2019-05-16T09:30:13.690Z,98630.19
2019-05-16T09:32:47.931Z,98641.23
2019-05-16T09:35:18.559Z,98629.55
2019-05-16T09:37:49.130Z,98626.17
2019-05-16T09:40:19.621Z,98628.91
2019-05-16T09:42:50.039Z,98626.62
2019-05-16T09:45:20.683Z,98627.23
2019-05-16T09:47:52.934Z,98628.57
2019-05-16T09:50:26.532Z,98633.56
2019-05-16T09:52:56.616Z,98631.66
2019-05-16T09:55:27.655Z,98635.14
2019-05-16T09:57:59.339Z,98631.69
2019-05-16T10:00:30.961Z,98635.81
2019-05-16T10:03:01.174Z,98637.07
2019-05-16T10:05:31.912Z,98634.11
2019-05-16T10:08:06.885Z,98635.61
2019-05-16T10:10:38.357Z,98633.48
2019-05-16T10:13:11.077Z,98623.68
2019-05-16T10:15:41.335Z,98631.18
2019-05-16T10:18:13.639Z,98625.86
2019-05-16T10:20:44.049Z,98624.93
2019-05-16T10:23:17.953Z,98614.87
2019-05-16T10:25:49.156Z,98611.55
2019-05-16T10:28:22.762Z,98612.25
2019-05-16T10:30:53.483Z,98608.27
2019-05-16T10:33:27.519Z,98607.80
2019-05-16T10:35:58.255Z,98602.44
2019-05-16T10:38:29.185Z,98610.05
2019-05-16T10:41:00.761Z,98606.58
2019-05-16T10:43:31.980Z,98604.20
2019-05-16T10:46:03.689Z,98616.63
2019-05-16T10:48:37.514Z,98610.30
2019-05-16T10:51:07.968Z,98610.30
2019-05-16T10:54:02.262Z,98613.44
2019-05-16T10:56:13.165Z,98616.38
2019-05-16T10:59:10.615Z,98609.32
2019-05-16T11:01:27.097Z,98610.80
2019-05-16T11:03:52.459Z,98608.51
2019-05-16T11:06:25.604Z,98610.92
2019-05-16T11:08:57.268Z,98613.80
2019-05-16T11:11:29.546Z,98612.73
2019-05-16T11:14:01.692Z,98615.76
2019-05-16T11:16:33.400Z,98611.78
2019-05-16T11:19:17.903Z,98613.91
2019-05-16T11:21:46.844Z,98611.39
2019-05-16T11:24:13.705Z,98612.31
2019-05-16T11:26:44.231Z,98612.80
2019-05-16T11:29:17.842Z,98598.67
2019-05-16T11:31:52.814Z,98607.13
2019-05-16T11:34:30.105Z,98601.20
2019-05-16T11:37:06.778Z,98608.03
2019-05-16T11:39:37.060Z,98605.69
2019-05-16T11:42:08.203Z,98601.93
2019-05-16T11:44:39.254Z,98597.98
2019-05-16T11:47:11.224Z,98602.55
2019-05-16T11:49:41.997Z,98595.05
2019-05-16T11:52:12.984Z,98587.58
2019-05-16T11:54:46.931Z,98590.76
2019-05-16T11:57:17.893Z,98584.36
2019-05-16T11:59:49.709Z,98586.26
2019-05-16T12:02:22.551Z,98584.02
2019-05-16T12:04:53.305Z,98584.97
2019-05-16T12:07:32.247Z,98587.18
2019-05-16T12:09:57.433Z,98587.46
2019-05-16T12:12:40.345Z,98588.08
2019-05-16T12:15:16.694Z,98583.58
2019-05-16T12:18:00.909Z,98581.20
2019-05-16T12:20:23.625Z,98583.11
2019-05-16T12:22:57.170Z,98583.79
2019-05-16T12:25:27.948Z,98581.39
2019-05-16T12:27:58.332Z,98582.00
2019-05-16T12:30:29.807Z,98578.16
2019-05-16T12:33:00.563Z,98568.68
2019-05-16T12:35:30.964Z,98567.06
2019-05-16T12:38:01.888Z,98557.62
2019-05-16T12:40:32.555Z,98539.16
2019-05-16T12:43:07.523Z,98523.67
2019-05-16T12:45:39.344Z,98536.78
2019-05-16T12:48:17.408Z,98523.73
2019-05-16T12:50:49.932Z,98513.41
2019-05-16T12:53:23.621Z,98520.23
2019-05-16T12:56:02.285Z,98520.38
2019-05-16T12:58:42.223Z,98521.57
2019-05-16T13:01:07.788Z,98523.04
2019-05-16T13:03:43.156Z,98520.77
2019-05-16T13:06:13.968Z,98522.66
2019-05-16T13:08:46.826Z,98519.19
2019-05-16T13:11:17.824Z,98524.83
2019-05-16T13:14:02.489Z,98526.66
2019-05-16T13:16:20.783Z,98523.83
2019-05-16T13:18:51.252Z,98519.38
2019-05-16T13:21:27.514Z,98521.39
2019-05-16T13:24:00.295Z,98520.20
2019-05-16T13:26:30.679Z,98519.19
2019-05-16T13:29:02.864Z,98523.73
2019-05-16T13:31:33.789Z,98524.48
2019-05-16T13:34:07.299Z,98509.06
2019-05-16T13:36:38.837Z,98498.11
2019-05-16T13:39:08.950Z,98497.70
2019-05-16T13:41:41.267Z,98502.39
2019-05-16T13:44:18.888Z,98499.55
2019-05-16T13:46:48.675Z,98503.22
2019-05-16T13:49:20.448Z,98491.99
2019-05-16T13:51:51.013Z,98489.78
2019-05-16T13:54:22.371Z,98485.69
2019-05-16T13:56:56.780Z,98491.61
2019-05-16T13:59:28.063Z,98486.27
2019-05-16T14:01:58.574Z,98482.81
2019-05-16T14:04:31.291Z,98478.86
2019-05-16T14:07:02.050Z,98480.59
2019-05-16T14:09:32.821Z,98483.59
2019-05-16T14:12:03.451Z,98473.22
2019-05-16T14:14:38.989Z,98460.46
2019-05-16T14:17:13.971Z,98466.05
2019-05-16T14:19:40.017Z,98463.40
2019-05-16T14:22:12.430Z,98461.67
2019-05-16T14:24:43.003Z,98445.59
2019-05-16T14:27:13.527Z,98456.02
2019-05-16T14:29:44.357Z,98457.04
2019-05-16T14:32:19.075Z,98454.70
2019-05-16T14:34:51.347Z,98460.00
2019-05-16T14:37:19.101Z,98455.98
2019-05-16T14:39:49.875Z,98450.67
2019-05-16T14:42:20.853Z,98455.02
2019-05-16T14:45:06.505Z,98451.57
2019-05-16T14:47:27.757Z,98447.16
2019-05-16T14:49:59.538Z,98446.72
2019-05-16T14:52:30.080Z,98448.48
2019-05-16T14:55:00.622Z,98448.52
2019-05-16T14:57:34.017Z,98446.09
2019-05-16T15:00:07.425Z,98439.98
2019-05-16T15:02:38.917Z,98438.23
2019-05-16T15:05:10.922Z,98439.03
2019-05-16T15:07:42.353Z,98440.61
2019-05-16T15:10:12.809Z,98436.23
2019-05-16T15:12:43.266Z,98444.22
2019-05-16T15:15:21.093Z,98437.94
2019-05-16T15:17:47.504Z,98434.53
2019-05-16T15:20:19.711Z,98422.02
2019-05-16T15:22:50.247Z,98416.87
2019-05-16T15:25:20.981Z,98410.69
2019-05-16T15:27:52.535Z,98416.25
2019-05-16T15:30:25.523Z,98413.94
2019-05-16T15:33:00.667Z,98413.02
2019-05-16T15:35:33.382Z,98424.83
2019-05-16T15:38:07.819Z,98422.84
2019-05-16T15:40:42.513Z,98407.61
2019-05-16T15:43:13.848Z,98408.59
2019-05-16T15:45:48.917Z,98405.53
2019-05-16T15:48:18.901Z,98399.30
2019-05-16T15:50:49.559Z,98391.73
2019-05-16T15:53:20.398Z,98391.30
2019-05-16T15:55:51.803Z,98394.23
2019-05-16T15:58:26.745Z,98394.90
2019-05-16T16:00:58.708Z,98383.70
2019-05-16T16:03:31.996Z,98396.07
2019-05-16T16:06:03.440Z,98405.48
2019-05-16T16:08:34.288Z,98409.54
2019-05-16T16:11:07.699Z,98412.98
2019-05-16T16:13:41.909Z,98416.47
2019-05-16T16:16:17.394Z,98426.70
2019-05-16T16:18:57.761Z,98419.72
2019-05-16T16:21:33.740Z,98420.89
2019-05-16T16:24:09.118Z,98429.30
2019-05-16T16:26:40.191Z,98423.78
2019-05-16T16:29:12.567Z,98417.92
2019-05-16T16:31:43.090Z,98416.65
2019-05-16T16:34:17.811Z,98421.00
2019-05-16T16:36:50.363Z,98414.00
2019-05-16T16:39:40.511Z,98412.86
2019-05-16T16:42:13.043Z,98410.92
2019-05-16T16:44:47.185Z,98405.86
2019-05-16T16:47:38.480Z,98406.56
2019-05-16T16:50:12.089Z,98409.04
2019-05-16T16:52:47.547Z,98408.42
2019-05-16T16:55:18.635Z,98396.56
2019-05-16T16:58:09.677Z,98387.50
2019-05-16T17:00:47.493Z,98383.36
2019-05-16T17:03:24.406Z,98380.09
2019-05-16T17:05:57.688Z,98370.33
2019-05-16T17:08:28.340Z,98362.35
2019-05-16T17:10:59.913Z,98366.93
2019-05-16T17:13:30.663Z,98364.39
2019-05-16T17:16:01.872Z,98367.55
2019-05-16T17:18:36.907Z,98359.38
2019-05-16T17:21:09.846Z,98357.33
2019-05-16T17:23:41.828Z,98351.80
2019-05-16T17:26:14.847Z,98352.81
2019-05-16T17:28:51.398Z,98356.95
2019-05-16T17:31:26.066Z,98353.62
2019-05-16T17:34:00.567Z,98355.26
2019-05-16T17:36:57.127Z,98347.14
2019-05-16T17:39:28.556Z,98355.34
2019-05-16T17:42:12.805Z,98353.86
2019-05-16T17:44:43.276Z,98351.91
2019-05-16T17:47:19.189Z,98353.03
2019-05-16T17:49:51.871Z,98348.91
2019-05-16T17:52:32.731Z,98341.67
2019-05-16T17:55:23.216Z,98340.89
2019-05-16T17:57:58.070Z,98346.08
2019-05-16T18:00:35.163Z,98343.88
2019-05-16T18:03:11.079Z,98347.05
2019-05-16T18:06:07.039Z,98352.12
2019-05-16T18:08:40.490Z,98352.29
2019-05-16T18:11:17.795Z,98363.36
2019-05-16T18:13:49.224Z,98366.98
2019-05-16T18:16:23.325Z,98362.98
2019-05-16T18:18:57.440Z,98358.80
2019-05-16T18:21:29.547Z,98355.83
2019-05-16T18:24:01.689Z,98359.88
2019-05-16T18:26:34.093Z,98366.88
2019-05-16T18:29:09.905Z,98369.09
2019-05-16T18:31:47.095Z,98360.41
2019-05-16T18:34:28.053Z,98357.56
2019-05-16T18:37:03.062Z,98363.13
2019-05-16T18:39:33.692Z,98363.01
2019-05-16T18:42:16.606Z,98366.45
2019-05-16T18:44:47.180Z,98365.16
2019-05-16T18:47:18.544Z,98362.41
2019-05-16T18:49:52.645Z,98365.16
2019-05-16T18:52:27.917Z,98362.45
2019-05-16T18:54:58.956Z,98372.64
2019-05-16T18:57:30.917Z,98369.00
2019-05-16T19:00:03.193Z,98359.95
2019-05-16T19:02:36.866Z,98355.95
2019-05-16T19:05:07.543Z,98356.69
2019-05-16T19:07:38.258Z,98362.50
2019-05-16T19:10:11.041Z,98358.19
2019-05-16T19:12:42.496Z,98357.40
2019-05-16T19:15:37.465Z,98355.56
2019-05-16T19:18:08.230Z,98358.81
2019-05-16T19:20:39.034Z,98359.95
2019-05-16T19:23:09.810Z,98360.52
2019-05-16T19:25:42.065Z,98361.26
2019-05-16T19:28:15.463Z,98367.90
2019-05-16T19:30:59.512Z,98368.86
2019-05-16T19:33:40.092Z,98369.42
2019-05-16T19:36:16.522Z,98370.33
2019-05-16T19:38:46.762Z,98382.81
2019-05-16T19:41:27.891Z,98374.47
2019-05-16T19:44:02.147Z,98379.47
2019-05-16T19:46:33.875Z,98379.56
2019-05-16T19:49:07.614Z,98374.39
2019-05-16T19:51:38.461Z,98371.05
2019-05-16T19:54:10.829Z,98364.52
2019-05-16T19:56:42.521Z,98369.05
2019-05-16T19:59:22.430Z,98363.95
2019-05-16T20:01:56.889Z,98366.77
2019-05-16T20:04:36.624Z,98374.20
2019-05-16T20:07:09.995Z,98371.95
2019-05-16T20:09:40.521Z,98373.20
2019-05-16T20:12:13.202Z,98376.39
2019-05-16T20:14:47.260Z,98373.00
2019-05-16T20:17:21.343Z,98379.33
2019-05-16T20:19:51.853Z,98379.00
2019-05-16T20:22:26.049Z,98380.76
2019-05-16T20:24:56.559Z,98386.13
2019-05-16T20:27:27.508Z,98387.80
2019-05-16T20:29:59.434Z,98389.10
2019-05-16T20:32:31.111Z,98389.55
2019-05-16T20:35:02.623Z,98390.39
2019-05-16T20:37:47.376Z,98385.94
2019-05-16T20:40:19.236Z,98379.09
2019-05-16T20:42:50.736Z,98370.40
2019-05-16T20:45:22.335Z,98369.31
2019-05-16T20:48:10.880Z,98369.62
2019-05-16T20:50:32.050Z,98365.52
2019-05-16T20:53:02.581Z,98371.28
2019-05-16T20:55:49.603Z,98366.11
2019-05-16T20:58:21.358Z,98365.31
2019-05-16T21:00:52.320Z,98375.09
2019-05-16T21:03:22.658Z,98366.77
2019-05-16T21:05:53.194Z,98374.39
2019-05-16T21:08:23.764Z,98378.37
2019-05-16T21:10:56.842Z,98382.87
2019-05-16T21:13:26.773Z,98381.34
2019-05-16T21:15:58.350Z,98380.51
2019-05-16T21:18:29.221Z,98376.90
2019-05-16T21:21:01.711Z,98377.33
2019-05-16T21:23:32.377Z,98371.39
2019-05-16T21:26:03.810Z,98372.84
2019-05-16T21:28:53.816Z,98376.08
2019-05-16T21:31:24.386Z,98378.41
2019-05-16T21:33:56.502Z,98378.54
2019-05-16T21:36:27.399Z,98383.86
2019-05-16T21:38:58.591Z,98383.71
2019-05-16T21:41:29.116Z,98382.96
2019-05-16T21:44:00.979Z,98372.02
2019-05-16T21:46:31.407Z,98377.59
2019-05-16T21:49:01.690Z,98380.78
2019-05-16T21:51:32.256Z,98377.07
2019-05-16T21:54:03.037Z,98379.06
2019-05-16T21:56:33.347Z,98379.52
2019-05-16T21:59:03.993Z,98382.98
2019-05-16T22:01:34.310Z,98370.73
2019-05-16T22:04:07.373Z,98374.52
2019-05-16T22:06:39.061Z,98367.22
2019-05-16T22:09:09.549Z,98364.25
2019-05-16T22:11:41.551Z,98362.94
2019-05-16T22:14:13.551Z,98370.47
2019-05-16T22:16:46.655Z,98366.01
2019-05-16T22:19:16.543Z,98363.03
2019-05-16T22:21:47.559Z,98358.30
2019-05-16T22:24:18.158Z,98366.36
2019-05-16T22:26:48.629Z,98371.22
2019-05-16T22:29:20.420Z,98370.33
2019-05-16T22:31:51.167Z,98372.98
2019-05-16T22:34:32.287Z,98376.54
2019-05-16T22:37:02.483Z,98370.41
2019-05-16T22:39:34.169Z,98371.67
2019-05-16T22:42:06.511Z,98362.08
2019-05-16T22:44:37.238Z,98372.03
2019-05-16T22:47:08.068Z,98374.78
2019-05-16T22:49:40.425Z,98382.03
2019-05-16T22:52:11.597Z,98378.42
2019-05-16T22:54:42.253Z,98376.84
2019-05-16T22:57:12.643Z,98387.18
2019-05-16T22:59:44.166Z,98384.69
2019-05-16T23:02:16.676Z,98383.06
2019-05-16T23:04:47.935Z,98380.01
2019-05-16T23:07:18.584Z,98374.87
2019-05-16T23:10:07.568Z,98370.49
2019-05-16T23:12:38.035Z,98366.78
2019-05-16T23:15:08.757Z,98372.78
2019-05-16T23:17:39.029Z,98373.20
2019-05-16T23:20:09.219Z,98374.14
2019-05-16T23:22:39.983Z,98380.35
2019-05-16T23:25:10.487Z,98376.56
2019-05-16T23:27:41.010Z,98376.52
2019-05-16T23:30:12.665Z,98381.84
2019-05-16T23:32:43.329Z,98386.12
2019-05-16T23:35:13.606Z,98390.08
2019-05-16T23:37:46.217Z,98394.05
2019-05-16T23:40:16.323Z,98395.36
2019-05-16T23:42:46.948Z,98396.71
2019-05-16T23:45:17.587Z,98398.52
2019-05-16T23:47:48.246Z,98398.52
2019-05-16T23:50:18.327Z,98395.58
2019-05-16T23:52:49.161Z,98394.14
2019-05-16T23:55:19.728Z,98394.27
2019-05-16T23:57:51.033Z,98396.06
